Time;durP1;ratioP1;P1;durP2;ratioP2;P2;SDS_P1;SDS_P2;PMS_P1;PMS_P2;Temp;Humidity;BMP_temperature;BMP_pressure;BME280_temperature;BME280_humidity;BME280_pressure;Samples;Min_cycle;Max_cycle;Signal;HPM_P1;HPM_P2
2020/12/12 00:02:30;;;;;;;15.73;10.90;;;;;;;2.50;100.00;152006.84;5017493;28;20461;-78
2020/12/12 00:05:06;;;;;;;15.90;10.70;;;;;;;2.54;100.00;152018.44;5017958;28;20539;-78
2020/12/12 00:07:41;;;;;;;13.70;10.33;;;;;;;2.56;100.00;152022.28;5001142;28;20453;-78
2020/12/12 00:10:16;;;;;;;14.60;10.43;;;;;;;2.56;100.00;152022.28;4998437;28;20550;-78
2020/12/12 00:12:53;;;;;;;14.37;10.20;;;;;;;2.53;100.00;152015.84;5002807;28;20461;-78
2020/12/12 00:15:28;;;;;;;14.53;10.47;;;;;;;2.56;100.00;152022.28;5034734;28;20457;-78
2020/12/12 00:18:07;;;;;;;18.43;11.40;;;;;;;2.58;100.00;152028.72;5021937;28;20805;-78
2020/12/12 00:20:42;;;;;;;11.03;9.40;;;;;;;2.60;100.00;152032.53;5015331;28;20429;-78
2020/12/12 00:23:18;;;;;;;14.93;10.20;;;;;;;2.61;100.00;152035.13;5017391;28;20535;-78
2020/12/12 00:25:53;;;;;;;16.10;10.87;;;;;;;2.59;100.00;152031.28;5018043;28;20484;-78
2020/12/12 00:28:31;;;;;;;15.07;10.03;;;;;;;2.60;100.00;152032.53;5017345;28;20479;-78
2020/12/12 00:31:06;;;;;;;14.60;10.20;;;;;;;2.62;100.00;152038.97;5013658;28;20437;-78
2020/12/12 00:33:41;;;;;;;13.17;10.57;;;;;;;2.61;100.00;152036.44;5018152;28;20544;-78
2020/12/12 00:36:17;;;;;;;12.60;9.57;;;;;;;2.61;100.00;152036.44;5002151;28;20991;-78
2020/12/12 00:38:52;;;;;;;13.77;10.20;;;;;;;2.61;100.00;152036.44;5017683;28;20540;-78
2020/12/12 00:41:28;;;;;;;13.87;10.77;;;;;;;2.64;100.00;152042.84;5035186;28;20799;-78
2020/12/12 00:44:05;;;;;;;10.70;9.63;;;;;;;2.62;100.00;152037.72;5034000;28;20446;-78
2020/12/12 00:46:40;;;;;;;16.43;10.73;;;;;;;2.62;100.00;152037.72;4993610;28;20446;-78
2020/12/12 00:49:16;;;;;;;13.43;8.90;;;;;;;2.65;100.00;152045.44;5002392;28;20968;-78
2020/12/12 00:51:52;;;;;;;13.20;10.00;;;;;;;2.65;100.00;152046.69;5006292;28;20442;-78
2020/12/12 00:54:27;;;;;;;11.53;8.67;;;;;;;2.64;100.00;152042.84;5018562;28;20782;-78
2020/12/12 00:57:03;;;;;;;12.00;9.70;;;;;;;2.67;100.00;152051.88;5002200;28;20445;-78
2020/12/12 00:59:39;;;;;;;14.00;9.90;;;;;;;2.71;100.00;152062.16;5013458;28;20438;-78
2020/12/12 01:02:14;;;;;;;10.93;8.43;;;;;;;2.70;100.00;152059.56;5015913;28;20940;-78
2020/12/12 01:04:49;;;;;;;12.90;9.60;;;;;;;2.68;100.00;152053.13;5017033;28;20457;-78
2020/12/12 01:07:25;;;;;;;12.20;8.57;;;;;;;2.70;100.00;152058.31;5014083;28;20449;-78
2020/12/12 01:10:00;;;;;;;12.90;8.60;;;;;;;2.69;100.00;152055.72;5016431;28;20463;-78
2020/12/12 01:12:35;;;;;;;11.90;8.63;;;;;;;2.72;100.00;152064.75;5001941;28;20452;-78
2020/12/12 01:15:12;;;;;;;12.40;9.70;;;;;;;2.73;100.00;152067.28;5001859;28;20860;-78
2020/12/12 01:17:47;;;;;;;11.10;8.60;;;;;;;2.74;100.00;152069.88;5025853;28;20477;-78
2020/12/12 01:20:22;;;;;;;13.83;10.20;;;;;;;2.73;100.00;152067.28;5018302;28;20535;-78
2020/12/12 01:22:57;;;;;;;10.60;9.50;;;;;;;2.76;100.00;152073.72;5016909;28;20461;-78
2020/12/12 01:25:37;;;;;;;12.73;10.27;;;;;;;2.75;100.00;152071.16;5035136;28;20450;-78
2020/12/12 01:28:13;;;;;;;11.80;9.10;;;;;;;2.73;100.00;152067.28;5001315;28;20501;-78
2020/12/12 01:30:50;;;;;;;11.40;8.57;;;;;;;2.74;100.00;152068.56;5020272;28;20449;-78
2020/12/12 01:33:25;;;;;;;14.00;9.40;;;;;;;2.78;100.00;152078.88;5016751;28;20544;-78
2020/12/12 01:36:00;;;;;;;11.57;9.27;;;;;;;2.79;100.00;152082.72;5015131;28;20430;-78
2020/12/12 01:38:36;;;;;;;13.50;9.60;;;;;;;2.74;100.00;152068.56;5018694;28;20453;-78
2020/12/12 01:41:11;;;;;;;13.50;9.93;;;;;;;2.75;100.00;152071.16;5033720;28;20442;-78
2020/12/12 01:43:50;;;;;;;12.67;9.30;;;;;;;2.78;100.00;152078.88;5016261;28;20557;-78
2020/12/12 01:46:27;;;;;;;13.90;8.90;;;;;;;2.79;100.00;152082.72;5016886;28;20450;-78
2020/12/12 01:49:03;;;;;;;13.93;9.17;;;;;;;2.79;100.00;152081.44;5016753;28;20474;-78
2020/12/12 01:51:38;;;;;;;11.53;8.53;;;;;;;2.78;100.00;152080.13;5000823;28;20438;-78
2020/12/12 01:54:15;;;;;;;10.80;8.63;;;;;;;2.74;100.00;152069.88;5016193;28;20449;-78
2020/12/12 01:56:52;;;;;;;10.30;8.23;;;;;;;2.75;100.00;152071.16;5015782;28;21003;-78
2020/12/12 01:59:28;;;;;;;10.27;8.37;;;;;;;2.71;100.00;152062.16;5016215;28;20458;-78
2020/12/12 02:02:06;;;;;;;10.60;8.00;;;;;;;2.69;100.00;152055.72;5015698;28;21184;-78
2020/12/12 02:04:47;;;;;;;12.23;8.30;;;;;;;2.66;100.00;152048.00;5016081;28;20450;-78
2020/12/12 02:07:23;;;;;;;12.20;8.37;;;;;;;2.63;100.00;152040.25;5000850;28;20490;-78
2020/12/12 02:09:59;;;;;;;11.13;8.67;;;;;;;2.60;100.00;152033.84;5015791;28;20465;-78
2020/12/12 02:12:34;;;;;;;13.67;9.40;;;;;;;2.63;100.00;152041.56;5003937;28;20941;-78
2020/12/12 02:15:09;;;;;;;12.17;8.97;;;;;;;2.58;100.00;152027.41;5009950;28;20504;-78
2020/12/12 02:17:47;;;;;;;12.00;8.70;;;;;;;2.53;100.00;152014.56;5015840;28;20855;-78
2020/12/12 02:20:23;;;;;;;12.10;8.70;;;;;;;2.53;100.00;152015.84;5024112;28;20443;-78
2020/12/12 02:22:59;;;;;;;12.47;8.70;;;;;;;2.57;100.00;152024.88;5013790;28;20457;-78
2020/12/12 02:25:35;;;;;;;12.63;8.53;;;;;;;2.54;100.00;152017.16;5000885;28;20473;-78
2020/12/12 02:28:13;;;;;;;10.40;8.10;;;;;;;2.52;100.00;152013.25;5000389;28;20533;-78
2020/12/12 02:30:49;;;;;;;10.70;7.80;;;;;;;2.56;100.00;152022.28;4997739;28;20442;-78
2020/12/12 02:33:24;;;;;;;10.13;7.70;;;;;;;2.53;100.00;152014.56;4999929;28;20462;-78
2020/12/12 02:36:00;;;;;;;9.00;6.93;;;;;;;2.54;100.00;152018.44;5032735;28;20442;-78
2020/12/12 02:38:36;;;;;;;11.70;8.50;;;;;;;2.56;100.00;152022.28;5017109;28;20535;-78
2020/12/12 02:41:11;;;;;;;10.20;7.60;;;;;;;2.54;100.00;152017.16;5014749;28;20796;-78
2020/12/12 02:43:47;;;;;;;10.10;7.30;;;;;;;2.58;100.00;152027.41;4993640;28;20504;-78
2020/12/12 02:46:22;;;;;;;9.87;7.30;;;;;;;2.55;100.00;152019.69;5012421;28;20828;-78
2020/12/12 02:48:58;;;;;;;11.17;7.63;;;;;;;2.52;100.00;152011.97;5010898;28;20474;-78
2020/12/12 02:51:39;;;;;;;12.30;8.20;;;;;;;2.57;100.00;152026.13;5009495;28;20450;-78
2020/12/12 02:54:15;;;;;;;10.40;7.20;;;;;;;2.58;100.00;152028.72;5012374;28;20940;-78
2020/12/12 02:56:50;;;;;;;9.37;7.67;;;;;;;2.62;100.00;152037.72;5011961;28;20474;-78
2020/12/12 02:59:26;;;;;;;9.43;7.00;;;;;;;2.61;100.00;152035.13;4995434;28;20455;-78
2020/12/12 03:02:01;;;;;;;9.93;6.90;;;;;;;2.61;100.00;152035.13;5011151;28;20485;-78
2020/12/12 03:04:36;;;;;;;10.13;6.83;;;;;;;2.60;100.00;152032.53;5009052;28;20449;-78
2020/12/12 03:07:12;;;;;;;10.37;7.17;;;;;;;2.61;100.00;152035.13;5012170;28;20525;-78
2020/12/12 03:09:48;;;;;;;10.10;6.63;;;;;;;2.63;100.00;152040.25;5010795;28;20470;-78
2020/12/12 03:12:23;;;;;;;12.73;7.10;;;;;;;2.64;100.00;152044.16;5007306;28;20466;-78
2020/12/12 03:14:59;;;;;;;12.40;7.40;;;;;;;2.65;100.00;152046.69;5011552;28;20481;-78
2020/12/12 03:17:35;;;;;;;9.33;6.87;;;;;;;2.66;100.00;152048.00;5012133;28;20849;-78
2020/12/12 03:20:10;;;;;;;11.80;8.10;;;;;;;2.67;100.00;152050.56;4996039;28;20806;-78
2020/12/12 03:22:45;;;;;;;9.67;6.70;;;;;;;2.67;100.00;152050.56;4995929;28;20457;-78
2020/12/12 03:25:22;;;;;;;8.67;6.80;;;;;;;2.74;100.00;152068.56;4995774;28;20453;-78
2020/12/12 03:27:57;;;;;;;12.23;7.97;;;;;;;2.75;100.00;152071.16;5001384;28;20850;-78
2020/12/12 03:30:33;;;;;;;7.93;5.60;;;;;;;2.75;100.00;152072.47;4991969;28;20443;-78
2020/12/12 03:33:08;;;;;;;8.60;6.13;;;;;;;2.77;100.00;152076.28;5011412;28;20450;-78
2020/12/12 03:35:44;;;;;;;9.13;6.43;;;;;;;2.75;100.00;152071.16;5010504;28;20468;-78
2020/12/12 03:38:19;;;;;;;8.60;6.30;;;;;;;2.74;100.00;152069.88;5009490;28;20454;-78
2020/12/12 03:40:56;;;;;;;6.70;5.87;;;;;;;2.78;100.00;152078.88;5009763;28;20529;-78
2020/12/12 03:43:31;;;;;;;7.80;6.30;;;;;;;2.77;100.00;152077.59;5010783;28;20482;-78
2020/12/12 03:46:06;;;;;;;6.60;5.43;;;;;;;2.79;100.00;152081.44;5011309;28;20441;-78
2020/12/12 03:48:41;;;;;;;7.73;6.13;;;;;;;2.82;100.00;152090.44;5008796;28;20483;-78
2020/12/12 03:51:17;;;;;;;7.47;5.80;;;;;;;2.84;100.00;152095.59;4996456;28;20466;-78
2020/12/12 03:53:52;;;;;;;6.40;5.10;;;;;;;2.82;100.00;152089.16;5011746;28;20455;-78
2020/12/12 03:56:28;;;;;;;8.00;6.23;;;;;;;2.81;100.00;152086.56;4996635;28;20447;-78
2020/12/12 03:59:03;;;;;;;9.33;5.90;;;;;;;2.83;100.00;152091.75;4986583;28;20448;-78
2020/12/12 04:01:39;;;;;;;6.90;5.80;;;;;;;2.82;100.00;152089.16;5011385;28;20538;-78
2020/12/12 04:04:15;;;;;;;8.10;5.90;;;;;;;2.82;100.00;152089.16;5001188;28;20770;-78
2020/12/12 04:06:50;;;;;;;9.00;6.30;;;;;;;2.83;100.00;152093.00;5011308;28;20486;-78
2020/12/12 04:09:26;;;;;;;7.03;5.80;;;;;;;2.85;100.00;152096.88;4995035;28;20589;-78
2020/12/12 04:12:02;;;;;;;8.23;5.93;;;;;;;2.83;100.00;152091.75;5005647;28;20944;-78
2020/12/12 04:14:37;;;;;;;8.37;6.20;;;;;;;2.81;100.00;152087.84;5011149;28;20451;-78
2020/12/12 04:17:12;;;;;;;7.50;5.97;;;;;;;2.84;100.00;152094.28;5010485;28;20450;-78
2020/12/12 04:19:48;;;;;;;10.17;6.57;;;;;;;2.79;100.00;152082.72;5010839;28;20442;-78
2020/12/12 04:22:23;;;;;;;8.37;6.60;;;;;;;2.79;100.00;152082.72;5010871;28;20446;-78
2020/12/12 04:24:58;;;;;;;8.43;6.40;;;;;;;2.83;100.00;152091.75;5010949;28;20447;-78
2020/12/12 04:27:34;;;;;;;8.30;6.60;;;;;;;2.79;100.00;152081.44;4993251;28;20804;-78
2020/12/12 04:30:10;;;;;;;7.73;6.80;;;;;;;2.81;100.00;152086.56;5011922;28;20498;-78
2020/12/12 04:32:45;;;;;;;6.50;5.80;;;;;;;2.82;100.00;152089.16;5010867;28;20460;-78
2020/12/12 04:35:21;;;;;;;10.10;7.60;;;;;;;2.81;100.00;152086.56;5010663;28;20523;-78
2020/12/12 04:37:56;;;;;;;9.40;7.20;;;;;;;2.85;100.00;152096.88;5013307;28;20602;-78
2020/12/12 04:40:32;;;;;;;7.70;6.90;;;;;;;2.86;100.00;152099.47;4997456;28;20455;-78
2020/12/12 04:43:09;;;;;;;10.10;7.47;;;;;;;2.84;100.00;152094.28;5013905;28;20512;-78
2020/12/12 04:45:45;;;;;;;9.50;6.70;;;;;;;2.86;100.00;152099.47;4999895;28;20475;-78
2020/12/12 04:48:20;;;;;;;8.67;7.17;;;;;;;2.84;100.00;152094.28;5014070;28;20881;-78
2020/12/12 04:50:56;;;;;;;7.70;6.63;;;;;;;2.85;100.00;152096.88;5014041;28;20940;-78
2020/12/12 04:53:31;;;;;;;8.23;6.57;;;;;;;2.83;100.00;152093.00;4999651;28;20548;-78
2020/12/12 04:56:07;;;;;;;8.37;6.27;;;;;;;2.83;100.00;152091.75;5014331;28;20439;-78
2020/12/12 04:58:45;;;;;;;7.93;6.33;;;;;;;2.85;100.00;152096.88;5014560;28;20439;-78
2020/12/12 05:01:20;;;;;;;8.40;7.37;;;;;;;2.85;100.00;152096.88;4998222;28;20438;-78
2020/12/12 05:03:57;;;;;;;8.87;6.57;;;;;;;2.86;100.00;152099.47;5014595;28;20455;-79
2020/12/12 05:06:33;;;;;;;8.30;7.40;;;;;;;2.88;100.00;152104.59;5014258;28;20443;-78
2020/12/12 05:09:08;;;;;;;9.67;6.67;;;;;;;2.87;100.00;152103.31;5014092;28;20503;-78
2020/12/12 05:11:44;;;;;;;8.70;6.77;;;;;;;2.87;100.00;152103.31;4997963;28;20452;-78
2020/12/12 05:14:21;;;;;;;8.43;7.20;;;;;;;2.87;100.00;152103.31;5013602;28;20849;-78
2020/12/12 05:16:57;;;;;;;9.03;6.93;;;;;;;2.91;100.00;152112.34;5010691;28;20440;-78
2020/12/12 05:19:33;;;;;;;8.30;6.43;;;;;;;2.94;100.00;152120.00;5013268;28;20927;-78
2020/12/12 05:22:09;;;;;;;7.17;6.10;;;;;;;2.96;100.00;152126.50;5013864;28;20475;-78
2020/12/12 05:24:45;;;;;;;9.20;6.93;;;;;;;3.02;100.00;152140.59;5012705;28;20934;-78
2020/12/12 05:27:20;;;;;;;9.20;6.60;;;;;;;3.02;100.00;152140.59;5011388;28;20446;-79
2020/12/12 05:29:59;;;;;;;10.30;6.50;;;;;;;2.97;100.00;152127.75;5014077;28;20971;-78
2020/12/12 05:32:35;;;;;;;8.57;6.43;;;;;;;2.97;100.00;152127.75;4988157;28;20511;-78
2020/12/12 05:35:11;;;;;;;8.40;6.53;;;;;;;2.93;100.00;152118.75;5013101;28;20452;-78
2020/12/12 05:37:46;;;;;;;8.50;6.90;;;;;;;2.98;100.00;152130.31;4998686;28;20459;-78
2020/12/12 05:40:21;;;;;;;7.10;6.00;;;;;;;2.96;100.00;152125.19;5011271;28;20456;-78
2020/12/12 05:43:01;;;;;;;9.27;6.97;;;;;;;2.95;100.00;152123.91;4997820;28;20847;-78
2020/12/12 05:45:39;;;;;;;7.90;6.50;;;;;;;2.98;100.00;152130.31;5013437;28;20483;-78
2020/12/12 05:48:15;;;;;;;9.17;6.70;;;;;;;2.98;100.00;152131.63;4996254;28;20456;-78
2020/12/12 05:50:50;;;;;;;10.43;6.90;;;;;;;2.99;100.00;152132.91;5009538;28;20434;-78
2020/12/12 05:53:25;;;;;;;7.37;6.23;;;;;;;3.00;100.00;152136.75;4998373;28;20459;-78
2020/12/12 05:56:01;;;;;;;8.53;7.13;;;;;;;3.02;100.00;152140.59;4997279;28;20439;-78
2020/12/12 05:58:36;;;;;;;7.90;6.43;;;;;;;3.02;100.00;152140.59;5011061;28;20455;-78
2020/12/12 06:01:18;;;;;;;6.60;5.67;;;;;;;3.04;100.00;152147.03;4997046;28;20948;-78
2020/12/12 06:03:54;;;;;;;7.60;5.53;;;;;;;3.03;100.00;152143.19;5020052;28;20921;-78
2020/12/12 06:06:30;;;;;;;8.93;5.70;;;;;;;3.04;100.00;152145.78;5013155;28;20447;-78
2020/12/12 06:09:07;;;;;;;8.07;5.80;;;;;;;3.06;100.00;152150.91;4997513;28;20582;-78
2020/12/12 06:11:43;;;;;;;5.97;4.87;;;;;;;3.06;100.00;152152.22;5009911;28;20451;-78
2020/12/12 06:14:19;;;;;;;8.73;5.80;;;;;;;3.13;100.00;152168.91;5002545;28;20448;-78
2020/12/12 06:16:56;;;;;;;6.80;5.30;;;;;;;3.15;100.00;152174.03;4998055;28;20451;-78
2020/12/12 06:19:33;;;;;;;6.43;5.20;;;;;;;3.12;100.00;152166.38;5012694;28;20435;-78
2020/12/12 06:22:08;;;;;;;5.57;4.87;;;;;;;3.13;100.00;152167.63;5003172;28;20450;-78
2020/12/12 06:24:48;;;;;;;6.70;5.03;;;;;;;3.15;100.00;152174.03;5013110;28;20534;-78
2020/12/12 06:27:23;;;;;;;6.10;5.07;;;;;;;3.15;100.00;152174.03;4997335;28;20451;-78
2020/12/12 06:30:00;;;;;;;7.80;5.50;;;;;;;3.18;100.00;152181.78;5012771;28;20553;-78
2020/12/12 06:32:37;;;;;;;7.30;4.90;;;;;;;3.19;100.00;152184.38;4997291;28;21022;-78
2020/12/12 06:35:14;;;;;;;5.93;4.63;;;;;;;3.15;100.00;152174.03;5013013;28;20479;-79
2020/12/12 06:37:50;;;;;;;7.33;4.90;;;;;;;3.17;100.00;152179.22;5012528;28;20459;-78
2020/12/12 06:40:40;;;;;;;6.40;5.30;;;;;;;3.19;100.00;152184.38;4997600;28;20872;-78
2020/12/12 06:43:29;;;;;;;5.90;4.40;;;;;;;3.18;100.00;152181.78;5007143;28;20479;-78
2020/12/12 06:46:06;;;;;;;5.80;4.77;;;;;;;3.19;100.00;152184.38;5013062;28;20484;-78
2020/12/12 06:48:43;;;;;;;7.53;5.30;;;;;;;3.17;100.00;152179.22;4990800;28;20444;-78
2020/12/12 06:51:36;;;;;;;6.50;5.47;;;;;;;3.21;100.00;152188.22;4979418;28;20447;-78
2020/12/12 06:54:11;;;;;;;6.00;5.23;;;;;;;3.22;100.00;152192.09;4997090;28;20804;-78
2020/12/12 06:56:47;;;;;;;6.40;4.87;;;;;;;3.23;100.00;152194.63;5007192;28;20445;-78
2020/12/12 06:59:32;;;;;;;7.37;5.97;;;;;;;3.21;100.00;152189.50;4996916;28;20557;-78
2020/12/12 07:02:08;;;;;;;5.90;5.17;;;;;;;3.24;100.00;152197.22;5011812;28;20439;-78
2020/12/12 07:04:47;;;;;;;8.60;6.50;;;;;;;3.27;100.00;152204.97;4991700;28;20455;-78
2020/12/12 07:07:22;;;;;;;6.60;5.07;;;;;;;3.33;100.00;152219.13;4997048;28;20447;-78
2020/12/12 07:09:58;;;;;;;8.57;5.77;;;;;;;3.34;100.00;152222.97;4996786;28;20471;-78
2020/12/12 07:12:34;;;;;;;6.57;5.40;;;;;;;3.33;100.00;152220.41;4983762;28;20442;-78
2020/12/12 07:15:09;;;;;;;5.73;5.10;;;;;;;3.37;100.00;152229.41;5011759;28;20459;-78
2020/12/12 07:17:44;;;;;;;7.27;4.97;;;;;;;3.33;100.00;152220.41;5011884;28;20455;-78
2020/12/12 07:20:21;;;;;;;6.50;5.47;;;;;;;3.34;100.00;152222.97;5011616;28;20455;-78
2020/12/12 07:22:57;;;;;;;6.73;4.90;;;;;;;3.33;100.00;152220.41;5012075;28;20435;-78
2020/12/12 07:25:32;;;;;;;5.90;5.03;;;;;;;3.36;100.00;152228.09;5022685;28;20558;-78
2020/12/12 07:28:08;;;;;;;5.33;4.50;;;;;;;3.36;100.00;152228.09;5011772;28;20494;-78
2020/12/12 07:30:43;;;;;;;7.40;5.60;;;;;;;3.40;100.00;152238.41;5000244;28;20515;-78
2020/12/12 07:33:18;;;;;;;6.03;5.43;;;;;;;3.40;100.00;152238.41;5001665;28;20440;-78
2020/12/12 07:35:55;;;;;;;9.27;6.30;;;;;;;3.39;100.00;152235.81;5011838;28;20458;-78
2020/12/12 07:38:30;;;;;;;8.03;6.10;;;;;;;3.39;100.00;152234.59;5011457;28;20834;-78
2020/12/12 07:41:10;;;;;;;6.73;5.87;;;;;;;3.38;100.00;152233.28;5012148;28;20451;-78
2020/12/12 07:43:53;;;;;;;7.50;5.70;;;;;;;3.38;100.00;152233.28;5010856;28;20478;-78
2020/12/12 07:46:38;;;;;;;9.03;5.87;;;;;;;3.39;100.00;152234.59;4996724;28;20830;-78
2020/12/12 07:49:13;;;;;;;7.30;5.83;;;;;;;3.41;100.00;152239.72;5010574;28;20498;-78
2020/12/12 07:51:58;;;;;;;7.63;5.30;;;;;;;3.42;100.00;152243.56;5009812;28;20798;-78
2020/12/12 07:54:36;;;;;;;7.97;5.87;;;;;;;3.41;100.00;152241.00;4996741;28;20452;-79
2020/12/12 07:57:12;;;;;;;6.33;4.90;;;;;;;3.43;100.00;152246.16;4995671;28;20558;-78
2020/12/12 07:59:47;;;;;;;7.33;5.47;;;;;;;3.42;100.00;152243.56;4995497;28;20441;-78
2020/12/12 08:02:23;;;;;;;5.63;5.00;;;;;;;3.42;100.00;152243.56;4996069;28;20448;-78
2020/12/12 08:05:00;;;;;;;7.27;5.70;;;;;;;3.42;100.00;152243.56;5005542;28;20953;-78
2020/12/12 08:07:36;;;;;;;6.17;5.57;;;;;;;3.44;100.00;152247.44;4988579;28;20476;-78
2020/12/12 08:10:12;;;;;;;8.40;6.47;;;;;;;3.44;100.00;152248.69;4996347;28;20478;-78
2020/12/12 08:12:48;;;;;;;8.67;5.60;;;;;;;3.46;100.00;152253.88;5014457;28;20474;-78
2020/12/12 08:15:26;;;;;;;6.30;5.57;;;;;;;3.45;100.00;152251.28;4999289;28;20485;-78
2020/12/12 08:18:13;;;;;;;12.70;8.90;;;;;;;3.48;100.00;152259.00;5010745;28;20519;-78
2020/12/12 08:20:48;;;;;;;17.97;12.17;;;;;;;3.51;100.00;152266.75;5011345;28;20483;-78
2020/12/12 08:23:25;;;;;;;11.23;8.10;;;;;;;3.51;100.00;152266.75;5015313;28;20451;-78
2020/12/12 08:26:00;;;;;;;13.60;7.50;;;;;;;3.56;100.00;152279.63;5016827;28;20474;-78
2020/12/12 08:28:36;;;;;;;8.87;7.53;;;;;;;3.56;100.00;152278.31;5013242;28;20456;-79
2020/12/12 08:31:12;;;;;;;10.07;7.30;;;;;;;3.54;100.00;152274.47;5014806;28;20450;-78
2020/12/12 08:33:53;;;;;;;9.80;6.83;;;;;;;3.57;100.00;152282.16;4998256;28;20458;-78
2020/12/12 08:36:31;;;;;;;7.37;6.67;;;;;;;3.60;100.00;152289.88;5004903;28;20479;-78
2020/12/12 08:39:07;;;;;;;10.90;8.53;;;;;;;3.63;100.00;152297.63;5011883;28;20475;-78
2020/12/12 08:41:43;;;;;;;8.70;7.43;;;;;;;3.65;100.00;152302.75;5014291;28;20479;-78
2020/12/12 08:44:23;;;;;;;7.80;6.00;;;;;;;3.64;100.00;152300.22;5017641;28;20442;-78
2020/12/12 08:47:00;;;;;;;7.17;6.47;;;;;;;3.67;100.00;152306.66;5002254;28;20434;-78
2020/12/12 08:49:36;;;;;;;6.00;5.37;;;;;;;3.68;100.00;152309.19;5016699;28;20487;-78
2020/12/12 08:52:11;;;;;;;5.57;4.73;;;;;;;3.74;100.00;152323.34;5009222;28;20838;-78
2020/12/12 08:54:58;;;;;;;5.10;4.60;;;;;;;3.73;100.00;152322.13;5014090;28;20549;-78
2020/12/12 08:57:34;;;;;;;6.27;4.90;;;;;;;3.75;100.00;152325.94;5016376;28;20444;-78
2020/12/12 09:00:09;;;;;;;7.03;5.00;;;;;;;3.78;100.00;152333.69;5009030;28;20454;-79
2020/12/12 09:02:44;;;;;;;5.40;4.87;;;;;;;3.85;100.00;152351.69;5014713;28;20509;-79
2020/12/12 09:05:20;;;;;;;7.73;5.17;;;;;;;3.87;100.00;152356.81;5017039;28;20443;-79
2020/12/12 09:07:55;;;;;;;5.30;4.60;;;;;;;3.92;100.00;152369.75;5002035;28;20487;-78
2020/12/12 09:10:31;;;;;;;6.30;4.90;;;;;;;3.92;100.00;152369.75;5001528;28;20860;-78
2020/12/12 09:13:09;;;;;;;8.03;6.83;;;;;;;3.95;100.00;152377.44;4997472;28;20439;-79
2020/12/12 09:15:44;;;;;;;10.63;8.10;;;;;;;3.99;100.00;152387.75;5015188;28;20447;-78
2020/12/12 09:18:19;;;;;;;13.53;11.20;;;;;;;3.99;100.00;152387.75;5016939;28;20446;-79
2020/12/12 09:20:55;;;;;;;10.67;9.57;;;;;;;4.06;100.00;152405.78;5015334;28;20451;-79
2020/12/12 09:23:30;;;;;;;7.70;5.87;;;;;;;4.06;100.00;152405.78;5015872;28;20451;-79
2020/12/12 09:26:07;;;;;;;5.27;4.03;;;;;;;4.09;100.00;152413.50;4997911;28;20455;-79
2020/12/12 09:28:42;;;;;;;5.67;4.83;;;;;;;4.08;100.00;152410.91;5012988;28;20535;-79
2020/12/12 09:31:19;;;;;;;6.50;5.23;;;;;;;4.09;100.00;152414.81;5006197;28;20503;-79
2020/12/12 09:33:55;;;;;;;6.80;6.10;;;;;;;4.11;100.00;152418.66;5013982;28;20474;-79
2020/12/12 09:36:30;;;;;;;7.20;6.17;;;;;;;4.18;100.00;152437.97;5022691;28;20844;-79
2020/12/12 09:39:05;;;;;;;5.23;4.73;;;;;;;4.17;100.00;152434.13;5021622;28;21127;-79
2020/12/12 09:41:42;;;;;;;7.70;5.83;;;;;;;4.22;100.00;152447.00;4998181;28;20453;-79
2020/12/12 09:44:17;;;;;;;6.90;5.60;;;;;;;4.25;100.00;152454.72;4995768;28;20526;-79
2020/12/12 09:46:53;;;;;;;4.27;3.80;;;;;;;4.30;100.00;152467.59;5011344;28;20459;-79
2020/12/12 09:49:28;;;;;;;4.90;3.50;;;;;;;4.34;100.00;152476.63;4999636;28;20467;-79
2020/12/12 09:52:04;;;;;;;4.10;3.67;;;;;;;4.34;100.00;152477.94;4993225;28;20444;-79
2020/12/12 09:54:39;;;;;;;5.10;4.10;;;;;;;4.37;100.00;152485.63;5006677;28;20448;-79
2020/12/12 09:57:16;;;;;;;5.23;4.63;;;;;;;4.42;100.00;152498.50;5006385;28;20455;-79
2020/12/12 09:59:51;;;;;;;5.60;4.70;;;;;;;4.41;100.00;152494.66;5012114;28;20827;-79
2020/12/12 10:02:27;;;;;;;6.00;4.63;;;;;;;4.44;100.00;152503.69;5008351;28;20565;-79
2020/12/12 10:05:02;;;;;;;5.73;3.80;;;;;;;4.42;100.00;152498.50;5006555;28;20783;-79
2020/12/12 10:07:38;;;;;;;6.53;5.00;;;;;;;4.49;100.00;152515.25;5003850;28;20444;-79
2020/12/12 10:10:14;;;;;;;8.50;6.00;;;;;;;4.51;100.00;152521.69;5009901;28;20480;-79
2020/12/12 10:12:50;;;;;;;5.17;4.10;;;;;;;4.53;100.00;152526.84;5006806;28;20435;-79
2020/12/12 10:15:27;;;;;;;7.03;5.33;;;;;;;4.52;100.00;152523.00;5014608;28;20513;-79
2020/12/12 10:18:02;;;;;;;7.40;5.40;;;;;;;4.58;100.00;152538.47;4997577;28;20443;-79
2020/12/12 10:20:37;;;;;;;5.43;4.23;;;;;;;4.61;100.00;152547.47;5005538;28;20448;-79
2020/12/12 10:23:13;;;;;;;4.93;3.77;;;;;;;4.67;100.00;152561.63;5014214;28;20451;-79
2020/12/12 10:25:52;;;;;;;5.23;4.10;;;;;;;4.66;100.00;152560.34;5011024;28;20471;-79
2020/12/12 10:28:28;;;;;;;3.73;3.20;;;;;;;4.68;100.00;152564.22;4989194;28;20482;-79
2020/12/12 10:31:04;;;;;;;4.20;3.17;;;;;;;4.76;100.00;152584.84;4995596;28;20507;-79
2020/12/12 10:33:39;;;;;;;2.90;2.60;;;;;;;4.74;100.00;152580.97;5012999;28;20459;-79
2020/12/12 10:36:15;;;;;;;3.27;2.90;;;;;;;4.79;100.00;152593.84;5011671;28;20812;-79
2020/12/12 10:38:52;;;;;;;4.50;3.30;;;;;;;4.79;100.00;152593.84;4994218;28;20451;-79
2020/12/12 10:41:31;;;;;;;4.50;3.17;;;;;;;4.80;100.00;152596.44;5007200;28;20538;-79
2020/12/12 10:44:08;;;;;;;4.27;3.70;;;;;;;4.78;100.00;152591.28;5009193;28;20435;-79
2020/12/12 10:46:43;;;;;;;4.03;3.40;;;;;;;4.84;100.00;152606.72;4990433;28;20792;-79
2020/12/12 10:49:18;;;;;;;5.77;3.57;;;;;;;4.85;100.00;152609.31;5004026;28;20455;-79
2020/12/12 10:51:54;;;;;;;4.60;3.87;;;;;;;4.90;100.00;152622.19;5006362;28;20435;-79
2020/12/12 10:54:30;;;;;;;4.37;3.73;;;;;;;4.88;100.00;152615.75;5006707;28;20551;-79
2020/12/12 10:57:05;;;;;;;3.80;3.40;;;;;;;4.95;100.00;152633.78;5004128;28;20803;-80
2020/12/12 10:59:43;;;;;;;4.20;3.77;;;;;;;4.97;100.00;152638.97;5005015;28;20444;-90
2020/12/12 11:02:18;;;;;;;6.70;4.70;;;;;;;4.96;100.00;152636.38;5011654;28;20443;-93
2020/12/12 11:04:53;;;;;;;7.40;5.80;;;;;;;5.02;100.00;152651.84;4993597;28;20842;-93
2020/12/12 11:07:28;;;;;;;5.60;4.50;;;;;;;5.07;100.00;152663.44;5008292;28;20521;-94
2020/12/12 11:10:04;;;;;;;5.27;4.30;;;;;;;5.10;100.00;152671.19;5006988;28;20471;-93
2020/12/12 11:12:39;;;;;;;4.00;3.60;;;;;;;5.17;100.00;152690.50;5022380;28;20443;-93
2020/12/12 11:15:15;;;;;;;3.80;3.33;;;;;;;5.14;100.00;152681.47;5027941;28;20449;-93
2020/12/12 11:17:51;;;;;;;3.53;3.23;;;;;;;5.14;100.00;152682.78;4993017;28;20533;-92
2020/12/12 11:20:26;;;;;;;5.70;3.17;;;;;;;5.15;100.00;152684.06;5008304;28;20479;-92
2020/12/12 11:23:02;;;;;;;4.33;2.70;;;;;;;5.19;100.00;152694.41;5004554;28;20427;-92
2020/12/12 11:25:38;;;;;;;3.77;3.03;;;;;;;5.18;100.00;152691.81;5006767;28;20491;-92
2020/12/12 11:28:13;;;;;;;3.50;3.20;;;;;;;5.20;100.00;152696.94;5011670;28;20439;-92
2020/12/12 11:30:49;;;;;;;3.50;3.20;;;;;;;5.24;100.00;152707.28;5005493;28;20464;-92
2020/12/12 11:33:25;;;;;;;3.67;3.00;;;;;;;5.30;100.00;152722.72;5029163;28;20479;-92
2020/12/12 11:36:13;;;;;;;4.17;3.03;;;;;;;5.34;100.00;152734.38;5007005;28;20840;-91
2020/12/12 11:38:53;;;;;;;3.87;3.37;;;;;;;5.38;100.00;152743.34;5011090;28;20530;-92
2020/12/12 11:42:03;;;;;;;3.50;3.20;;;;;;;5.39;100.00;152747.25;4991728;28;20853;-92
2020/12/12 11:45:02;;;;;;;3.27;2.97;;;;;;;5.48;100.00;152769.19;4989130;28;20447;-92
2020/12/12 11:47:41;;;;;;;4.30;3.37;;;;;;;5.50;100.00;152774.31;4996774;28;20443;-92
2020/12/12 11:50:16;;;;;;;4.10;3.70;;;;;;;5.58;100.00;152794.97;5019387;28;20467;-93
2020/12/12 11:52:54;;;;;;;3.80;3.40;;;;;;;5.66;100.00;152815.59;5011670;28;20535;-93
2020/12/12 11:55:30;;;;;;;4.40;3.57;;;;;;;5.67;100.00;152818.16;5014621;28;20773;-91
2020/12/12 11:58:05;;;;;;;3.10;2.80;;;;;;;5.71;100.00;152827.19;5020310;28;20438;-92
2020/12/12 12:00:43;;;;;;;3.73;3.10;;;;;;;5.76;100.00;152841.38;5020056;28;20447;-92
2020/12/12 12:03:19;;;;;;;4.77;3.33;;;;;;;5.79;100.00;152849.13;4998410;28;20439;-92
2020/12/12 12:05:55;;;;;;;6.20;4.20;;;;;;;5.79;100.00;152849.13;5014387;28;20567;-92